createdAt,value
2022-09-26T00:01:14.856Z,2.30
2022-09-26T00:03:44.006Z,2.10
2022-09-26T00:06:12.536Z,2.30
2022-09-26T00:08:41.221Z,1.90
2022-09-26T00:11:10.885Z,2.40
2022-09-26T00:13:39.898Z,1.90
2022-09-26T00:16:08.499Z,2.30
2022-09-26T00:18:36.569Z,2.93
2022-09-26T00:21:05.127Z,2.27
2022-09-26T00:23:33.265Z,2.00
2022-09-26T00:26:01.287Z,2.10
2022-09-26T00:28:30.692Z,2.03
2022-09-26T00:30:59.168Z,1.80
2022-09-26T00:33:27.294Z,2.00
2022-09-26T00:35:55.891Z,2.03
2022-09-26T00:38:24.181Z,2.20
2022-09-26T00:40:52.252Z,2.27
2022-09-26T00:43:31.991Z,2.30
2022-09-26T00:46:01.417Z,2.17
2022-09-26T00:48:29.742Z,1.73
2022-09-26T00:50:57.788Z,2.03
2022-09-26T00:53:27.376Z,2.10
2022-09-26T00:55:57.408Z,1.70
2022-09-26T00:58:27.293Z,1.97
2022-09-26T01:00:56.842Z,1.80
2022-09-26T01:03:24.972Z,1.80
2022-09-26T01:05:53.028Z,1.77
2022-09-26T01:08:23.351Z,1.83
2022-09-26T01:10:53.277Z,1.73
2022-09-26T01:13:21.983Z,1.67
2022-09-26T01:15:50.020Z,2.13
2022-09-26T01:18:19.410Z,1.70
2022-09-26T01:20:51.458Z,2.07
2022-09-26T01:23:41.880Z,1.80
2022-09-26T01:26:29.719Z,1.83
2022-09-26T01:29:30.159Z,2.03
2022-09-26T01:32:19.652Z,1.70
2022-09-26T01:34:50.921Z,1.90
2022-09-26T01:37:26.501Z,1.67
2022-09-26T01:39:58.584Z,1.90
2022-09-26T01:42:28.310Z,1.50
2022-09-26T01:44:58.996Z,1.77
2022-09-26T01:47:29.723Z,1.80
2022-09-26T01:50:00.213Z,1.53
2022-09-26T01:52:32.059Z,1.80
2022-09-26T01:55:02.933Z,2.00
2022-09-26T01:57:32.458Z,2.00
2022-09-26T02:00:01.544Z,1.40
2022-09-26T02:02:33.564Z,1.50
2022-09-26T02:05:02.840Z,1.90
2022-09-26T02:07:32.652Z,1.70
2022-09-26T02:10:03.582Z,1.73
2022-09-26T02:12:34.094Z,1.80
2022-09-26T02:15:02.587Z,1.60
2022-09-26T02:17:34.301Z,1.60
2022-09-26T02:20:07.044Z,1.47
2022-09-26T02:22:35.595Z,1.70
2022-09-26T02:25:05.571Z,2.30
2022-09-26T02:27:33.593Z,1.70
2022-09-26T02:30:01.808Z,1.47
2022-09-26T02:32:32.869Z,1.73
2022-09-26T02:35:34.745Z,1.73
2022-09-26T02:38:02.971Z,1.50
2022-09-26T02:40:36.786Z,1.80
2022-09-26T02:43:13.201Z,1.80
2022-09-26T02:45:53.757Z,1.63
2022-09-26T02:48:34.189Z,1.47
2022-09-26T02:51:17.788Z,2.03
2022-09-26T02:53:55.110Z,1.37
2022-09-26T02:56:27.555Z,1.90
2022-09-26T02:58:59.749Z,1.77
2022-09-26T03:01:31.081Z,1.60
2022-09-26T03:04:03.493Z,1.87
2022-09-26T03:06:35.104Z,1.80
2022-09-26T03:09:05.405Z,1.70
2022-09-26T03:11:33.582Z,1.97
2022-09-26T03:14:01.594Z,1.83
2022-09-26T03:16:31.762Z,1.90
2022-09-26T03:19:03.886Z,2.00
2022-09-26T03:21:36.146Z,1.90
2022-09-26T03:24:05.204Z,2.17
2022-09-26T03:26:33.212Z,1.67
2022-09-26T03:29:01.298Z,1.40
2022-09-26T03:31:29.380Z,1.80
2022-09-26T03:33:57.420Z,1.70
2022-09-26T03:36:26.897Z,2.10
2022-09-26T03:38:54.922Z,1.90
2022-09-26T03:41:23.237Z,1.63
2022-09-26T03:43:51.245Z,2.07
2022-09-26T03:46:19.343Z,1.97
2022-09-26T03:48:47.423Z,2.00
2022-09-26T03:51:15.524Z,1.90
2022-09-26T03:53:47.131Z,2.10
2022-09-26T03:56:16.043Z,2.20
2022-09-26T03:58:44.304Z,2.00
2022-09-26T04:01:13.190Z,2.00
2022-09-26T04:03:46.408Z,1.80
2022-09-26T04:06:19.937Z,2.00
2022-09-26T04:08:54.701Z,1.53
2022-09-26T04:11:24.648Z,2.00
2022-09-26T04:13:53.989Z,1.83
2022-09-26T04:16:23.262Z,1.70
2022-09-26T04:18:51.410Z,1.77
2022-09-26T04:21:19.430Z,2.20
2022-09-26T04:23:47.597Z,1.97
2022-09-26T04:26:22.987Z,1.70
2022-09-26T04:28:55.303Z,1.90
2022-09-26T04:31:23.726Z,2.23
2022-09-26T04:33:51.807Z,1.90
2022-09-26T04:36:19.842Z,2.17
2022-09-26T04:38:47.902Z,2.40
2022-09-26T04:41:18.108Z,1.83
2022-09-26T04:43:46.233Z,2.10
2022-09-26T04:46:20.876Z,1.80
2022-09-26T04:48:53.852Z,1.97
2022-09-26T04:51:22.412Z,1.70
2022-09-26T04:53:50.506Z,2.20
2022-09-26T04:56:20.760Z,1.70
2022-09-26T04:58:54.706Z,2.00
2022-09-26T05:01:23.086Z,2.10
2022-09-26T05:03:51.179Z,1.80
2022-09-26T05:06:29.314Z,2.00
2022-09-26T05:08:57.761Z,2.17
2022-09-26T05:11:27.204Z,1.83
2022-09-26T05:13:55.218Z,2.03
2022-09-26T05:16:24.054Z,2.13
2022-09-26T05:18:52.357Z,2.47
2022-09-26T05:21:20.449Z,1.93
2022-09-26T05:24:10.809Z,1.77
2022-09-26T05:26:42.774Z,1.63
2022-09-26T05:29:11.944Z,2.10
2022-09-26T05:31:40.497Z,2.20
2022-09-26T05:34:13.169Z,1.70
2022-09-26T05:36:43.798Z,1.83
2022-09-26T05:39:25.712Z,2.03
2022-09-26T05:41:55.602Z,1.90
2022-09-26T05:44:23.717Z,1.80
2022-09-26T05:46:53.441Z,2.10
2022-09-26T05:49:21.524Z,1.77
2022-09-26T05:51:49.571Z,2.13
2022-09-26T05:54:17.667Z,2.00
2022-09-26T05:56:45.730Z,2.23
2022-09-26T05:59:15.200Z,1.80
2022-09-26T06:01:43.736Z,1.87
2022-09-26T06:04:12.207Z,1.77
2022-09-26T06:06:40.248Z,2.03
2022-09-26T06:09:08.286Z,1.80
2022-09-26T06:11:37.480Z,2.10
2022-09-26T06:14:05.527Z,1.93
2022-09-26T06:16:35.018Z,1.90
2022-09-26T06:19:03.140Z,2.23
2022-09-26T06:21:31.195Z,2.00
2022-09-26T06:23:59.220Z,2.10
2022-09-26T06:26:29.904Z,1.63
2022-09-26T06:29:00.182Z,2.03
2022-09-26T06:31:28.850Z,1.90
2022-09-26T06:33:58.654Z,1.70
2022-09-26T06:36:29.344Z,2.00
2022-09-26T06:38:57.345Z,1.97
2022-09-26T06:41:26.556Z,2.00
2022-09-26T06:43:54.729Z,1.53
2022-09-26T06:46:22.847Z,1.90
2022-09-26T06:48:50.928Z,2.10
2022-09-26T06:51:20.483Z,1.70
2022-09-26T06:53:48.476Z,1.77
2022-09-26T06:56:17.399Z,2.10
2022-09-26T06:58:45.386Z,2.07
2022-09-26T07:01:14.551Z,1.87
2022-09-26T07:03:47.392Z,2.00
2022-09-26T07:06:15.485Z,2.00
2022-09-26T07:09:02.355Z,2.10
2022-09-26T07:11:41.937Z,1.60
2022-09-26T07:14:16.934Z,2.33
2022-09-26T07:16:45.410Z,1.90
2022-09-26T07:19:13.740Z,2.13
2022-09-26T07:21:41.945Z,1.70
2022-09-26T07:24:14.156Z,1.70
2022-09-26T07:26:42.307Z,2.23
2022-09-26T07:29:10.368Z,1.80
2022-09-26T07:31:38.425Z,1.70
2022-09-26T07:34:07.720Z,1.90
2022-09-26T07:36:36.241Z,1.63
2022-09-26T07:39:04.313Z,1.83
2022-09-26T07:41:33.705Z,1.60
2022-09-26T07:44:58.941Z,1.57
2022-09-26T07:47:07.536Z,1.67
2022-09-26T07:49:52.945Z,1.53
2022-09-26T07:52:22.616Z,1.20
2022-09-26T07:54:50.711Z,1.40
2022-09-26T07:57:24.995Z,1.83
2022-09-26T07:59:54.263Z,1.57
2022-09-26T08:02:23.095Z,1.40
2022-09-26T08:04:51.228Z,1.50
2022-09-26T08:07:29.717Z,1.53
2022-09-26T08:09:58.802Z,2.07
2022-09-26T08:12:28.307Z,1.57
2022-09-26T08:14:56.423Z,1.80
2022-09-26T08:17:24.480Z,1.70
2022-09-26T08:19:52.803Z,1.83
2022-09-26T08:22:21.150Z,1.50
2022-09-26T08:24:54.909Z,1.97
2022-09-26T08:27:23.932Z,1.40
2022-09-26T08:29:53.762Z,1.50
2022-09-26T08:32:21.856Z,2.20
2022-09-26T08:34:52.634Z,1.57
2022-09-26T08:37:21.095Z,1.70
2022-09-26T08:39:49.195Z,1.70
2022-09-26T08:42:24.023Z,1.80
2022-09-26T08:45:02.569Z,1.83
2022-09-26T08:47:40.770Z,1.90
2022-09-26T08:50:15.112Z,1.53
2022-09-26T08:52:44.639Z,2.00
2022-09-26T08:55:15.877Z,1.60
2022-09-26T08:57:45.509Z,1.63
2022-09-26T09:00:26.346Z,1.60
2022-09-26T09:03:01.155Z,1.40
2022-09-26T09:05:31.467Z,2.43
2022-09-26T09:08:00.100Z,1.40
2022-09-26T09:10:43.658Z,1.70
2022-09-26T09:13:42.835Z,2.00
2022-09-26T09:16:23.184Z,1.53
2022-09-26T09:18:55.210Z,1.50
2022-09-26T09:21:30.052Z,1.73
2022-09-26T09:24:07.420Z,1.73
2022-09-26T09:29:49.640Z,2.00
2022-09-26T09:32:21.172Z,1.30
2022-09-26T09:34:53.622Z,1.50
2022-09-26T09:37:22.774Z,1.87
2022-09-26T09:39:51.159Z,1.50
2022-09-26T09:42:22.212Z,1.77
2022-09-26T09:44:51.912Z,1.97
2022-09-26T09:47:21.327Z,1.70
2022-09-26T09:49:49.859Z,1.33
2022-09-26T09:52:29.111Z,1.47
2022-09-26T09:55:03.516Z,1.80
2022-09-26T09:57:39.989Z,1.60
2022-09-26T10:00:13.170Z,1.77
2022-09-26T10:02:47.140Z,1.43
2022-09-26T10:05:20.239Z,1.27
2022-09-26T10:07:59.082Z,1.80
2022-09-26T10:10:29.923Z,1.40
2022-09-26T10:12:57.923Z,1.67
2022-09-26T10:15:27.572Z,1.20
2022-09-26T10:20:54.536Z,1.50
2022-09-26T10:23:25.163Z,1.40
2022-09-26T10:25:53.429Z,1.67
2022-09-26T10:28:30.223Z,1.73
2022-09-26T10:31:03.559Z,1.40
2022-09-26T10:33:34.832Z,1.50
2022-09-26T10:36:09.041Z,1.10
2022-09-26T10:38:58.211Z,1.33
2022-09-26T10:41:25.535Z,1.40
2022-09-26T10:43:54.383Z,1.30
2022-09-26T10:46:23.483Z,1.30
2022-09-26T10:48:53.952Z,1.43
2022-09-26T10:51:25.443Z,1.27
2022-09-26T10:53:54.569Z,1.20
2022-09-26T10:56:26.319Z,1.37
2022-09-26T10:58:57.520Z,1.60
2022-09-26T11:01:26.876Z,1.20
2022-09-26T11:03:57.078Z,1.50
2022-09-26T11:06:29.636Z,1.37
2022-09-26T11:09:02.404Z,1.53
2022-09-26T11:11:33.288Z,1.07
2022-09-26T11:14:07.590Z,1.30
2022-09-26T11:16:41.811Z,1.20
2022-09-26T11:19:17.070Z,1.47
2022-09-26T11:21:47.288Z,1.60
2022-09-26T11:24:19.549Z,1.20
2022-09-26T11:26:52.849Z,1.30
2022-09-26T11:29:23.281Z,1.20
2022-09-26T11:31:51.329Z,1.40
2022-09-26T11:34:23.811Z,1.40
2022-09-26T11:37:14.111Z,1.50
2022-09-26T11:39:51.688Z,1.40
2022-09-26T11:42:27.181Z,1.40
2022-09-26T11:44:56.728Z,1.07
2022-09-26T11:47:53.935Z,1.13
2022-09-26T11:50:28.662Z,1.30
2022-09-26T11:53:04.207Z,1.20
2022-09-26T11:55:37.245Z,1.27
2022-09-26T11:58:07.545Z,1.07
2022-09-26T12:00:41.943Z,1.30
2022-09-26T12:03:20.259Z,1.00
2022-09-26T12:05:54.255Z,1.30
2022-09-26T12:08:48.402Z,1.43
2022-09-26T12:11:21.112Z,1.30
2022-09-26T12:13:52.485Z,1.20
2022-09-26T12:16:26.915Z,1.47
2022-09-26T12:18:59.501Z,1.13
2022-09-26T12:21:33.590Z,1.53
2022-09-26T12:24:03.716Z,1.30
2022-09-26T12:26:35.114Z,1.53
2022-09-26T12:29:28.050Z,1.50
2022-09-26T12:32:18.148Z,1.03
2022-09-26T12:35:03.621Z,1.20
2022-09-26T12:37:46.896Z,0.97
2022-09-26T12:40:24.348Z,1.00
2022-09-26T12:43:34.911Z,1.37
2022-09-26T12:46:11.183Z,1.13
2022-09-26T12:48:46.646Z,1.03
2022-09-26T12:51:19.986Z,1.20
2022-09-26T12:54:01.516Z,1.27
2022-09-26T12:56:35.609Z,1.10
2022-09-26T12:59:12.203Z,1.00
2022-09-26T13:02:14.619Z,1.60
2022-09-26T13:05:10.094Z,1.30
2022-09-26T13:07:43.482Z,1.30
2022-09-26T13:10:28.014Z,0.90
2022-09-26T13:13:23.189Z,1.20
2022-09-26T13:15:59.093Z,1.23
2022-09-26T13:18:33.136Z,1.23
2022-09-26T13:21:06.870Z,1.17
2022-09-26T13:23:36.976Z,1.00
2022-09-26T13:26:08.875Z,1.20
2022-09-26T13:28:38.802Z,1.10
2022-09-26T13:31:09.840Z,1.00
2022-09-26T13:33:40.449Z,1.00
2022-09-26T13:36:09.482Z,0.90
2022-09-26T13:38:47.292Z,1.30
2022-09-26T13:41:35.022Z,1.10
2022-09-26T13:44:24.062Z,0.97
2022-09-26T13:46:58.126Z,1.10
2022-09-26T13:49:39.469Z,1.17
2022-09-26T13:52:14.623Z,1.10
2022-09-26T13:55:00.484Z,1.03
2022-09-26T13:57:35.216Z,1.33
2022-09-26T14:00:08.006Z,1.07
2022-09-26T14:02:36.091Z,1.20
2022-09-26T14:05:50.113Z,1.30
2022-09-26T14:08:59.205Z,1.00
2022-09-26T14:11:30.357Z,1.20
2022-09-26T14:14:25.226Z,1.00
2022-09-26T14:16:53.563Z,1.10
2022-09-26T14:19:26.982Z,1.40
2022-09-26T14:22:02.461Z,1.30
2022-09-26T14:24:35.816Z,1.10
2022-09-26T14:27:22.202Z,1.00
2022-09-26T14:29:53.032Z,1.10
2022-09-26T14:32:23.330Z,1.13
2022-09-26T14:34:56.468Z,1.00
2022-09-26T14:37:40.884Z,1.20
2022-09-26T14:40:28.198Z,1.57
2022-09-26T14:42:58.124Z,1.00
2022-09-26T14:45:28.336Z,0.83
2022-09-26T14:48:04.632Z,1.07
2022-09-26T14:50:45.694Z,1.20
2022-09-26T14:53:25.431Z,1.03
2022-09-26T14:55:59.220Z,1.37
2022-09-26T14:58:54.441Z,1.10
2022-09-26T15:01:29.523Z,0.90
2022-09-26T15:03:59.034Z,1.17
2022-09-26T15:06:27.682Z,1.03
2022-09-26T15:09:10.041Z,1.13
2022-09-26T15:11:44.088Z,1.27
2022-09-26T15:14:21.227Z,1.10
2022-09-26T15:16:52.562Z,1.07
2022-09-26T15:19:21.551Z,1.00
2022-09-26T15:21:51.697Z,1.10
2022-09-26T15:24:25.003Z,1.17
2022-09-26T15:26:53.047Z,1.10
2022-09-26T15:29:21.989Z,1.20
2022-09-26T15:31:51.959Z,1.33
2022-09-26T15:34:22.505Z,1.30
2022-09-26T15:36:55.296Z,0.90
2022-09-26T15:39:42.584Z,1.10
2022-09-26T15:42:39.332Z,1.10
2022-09-26T15:45:27.602Z,1.40
2022-09-26T15:47:57.809Z,1.00
2022-09-26T15:50:28.655Z,0.90
2022-09-26T15:53:00.207Z,1.10
2022-09-26T15:55:29.863Z,1.20
2022-09-26T15:57:59.731Z,1.23
2022-09-26T16:00:27.837Z,1.17
2022-09-26T16:02:57.271Z,1.60
2022-09-26T16:05:25.409Z,1.40
2022-09-26T16:07:54.000Z,1.40
2022-09-26T16:10:23.643Z,1.50
2022-09-26T16:12:52.442Z,1.13
2022-09-26T16:15:22.729Z,1.13
2022-09-26T16:17:52.155Z,1.00
2022-09-26T16:20:29.463Z,1.10
2022-09-26T16:23:03.299Z,1.50
2022-09-26T16:25:34.587Z,1.20
2022-09-26T16:28:19.055Z,1.10
2022-09-26T16:30:52.155Z,1.10
2022-09-26T16:33:28.004Z,1.47
2022-09-26T16:35:57.787Z,1.40
2022-09-26T16:38:28.449Z,1.20
2022-09-26T16:40:57.741Z,0.87
2022-09-26T16:43:27.067Z,1.03
2022-09-26T16:46:00.592Z,1.20
2022-09-26T16:48:39.438Z,0.80
2022-09-26T16:51:19.034Z,1.40
2022-09-26T16:53:47.582Z,1.13
2022-09-26T16:56:19.284Z,0.90
2022-09-26T16:58:50.287Z,1.53
2022-09-26T17:01:36.504Z,1.10
2022-09-26T17:04:04.638Z,0.90
2022-09-26T17:06:37.427Z,1.00
2022-09-26T17:09:13.759Z,0.97
2022-09-26T17:11:41.824Z,1.00
2022-09-26T17:14:12.291Z,1.30
2022-09-26T17:16:40.372Z,1.10
2022-09-26T17:19:12.878Z,1.47
2022-09-26T17:21:42.328Z,1.10
2022-09-26T17:24:14.542Z,1.20
2022-09-26T17:26:45.175Z,0.80
2022-09-26T17:29:17.505Z,1.20
2022-09-26T17:31:45.592Z,0.90
2022-09-26T17:34:14.608Z,1.10
2022-09-26T17:36:46.506Z,1.00
2022-09-26T17:39:15.468Z,1.10
2022-09-26T17:41:43.863Z,0.93
2022-09-26T17:44:11.859Z,1.20
2022-09-26T17:46:42.489Z,0.80
2022-09-26T17:49:12.131Z,1.00
2022-09-26T17:51:42.770Z,1.20
2022-09-26T17:54:17.632Z,0.97
2022-09-26T17:56:45.836Z,1.07
2022-09-26T17:59:19.693Z,1.17
2022-09-26T18:01:47.754Z,1.03
2022-09-26T18:04:17.922Z,0.83
2022-09-26T18:06:45.968Z,1.10
2022-09-26T18:09:16.647Z,1.17
2022-09-26T18:11:48.401Z,1.00
2022-09-26T18:14:17.110Z,1.10
2022-09-26T18:16:46.576Z,0.80
2022-09-26T18:19:15.154Z,1.10
2022-09-26T18:21:43.176Z,1.20
2022-09-26T18:24:18.552Z,1.03
2022-09-26T18:26:50.691Z,1.10
2022-09-26T18:29:21.106Z,1.10
2022-09-26T18:31:49.211Z,1.00
2022-09-26T18:34:19.979Z,1.03
2022-09-26T18:36:50.010Z,1.13
2022-09-26T18:39:18.087Z,1.10
2022-09-26T18:41:46.445Z,1.10
2022-09-26T18:44:17.222Z,1.00
2022-09-26T18:46:47.105Z,1.10
2022-09-26T18:49:15.478Z,1.20
2022-09-26T18:51:48.002Z,0.90
2022-09-26T18:54:17.260Z,1.00
2022-09-26T18:57:03.101Z,1.13
2022-09-26T18:59:32.482Z,1.13
2022-09-26T19:02:01.604Z,1.10
2022-09-26T19:04:30.669Z,1.30
2022-09-26T19:07:00.931Z,0.90
2022-09-26T19:09:31.816Z,1.10
2022-09-26T19:12:00.620Z,1.30
2022-09-26T19:14:30.304Z,1.00
2022-09-26T19:17:00.132Z,1.10
2022-09-26T19:19:28.621Z,1.20
2022-09-26T19:21:57.722Z,1.10
2022-09-26T19:24:32.083Z,1.00
2022-09-26T19:27:05.938Z,1.07
2022-09-26T19:29:36.368Z,1.00
2022-09-26T19:32:06.177Z,1.10
2022-09-26T19:34:34.199Z,1.20
2022-09-26T19:37:03.988Z,1.07
2022-09-26T19:39:32.474Z,1.10
2022-09-26T19:42:06.093Z,1.20
2022-09-26T19:44:34.283Z,0.80
2022-09-26T19:47:03.853Z,1.10
2022-09-26T19:49:33.251Z,1.10
2022-09-26T19:52:02.629Z,1.50
2022-09-26T19:54:30.671Z,1.10
2022-09-26T19:56:58.827Z,1.00
2022-09-26T19:59:27.761Z,1.20
2022-09-26T20:01:56.220Z,1.10
2022-09-26T20:04:24.655Z,1.20
2022-09-26T20:06:54.033Z,1.40
2022-09-26T20:09:22.137Z,1.20
2022-09-26T20:11:50.210Z,1.27
2022-09-26T20:14:27.018Z,1.10
2022-09-26T20:16:59.631Z,0.93
2022-09-26T20:19:33.286Z,1.10
2022-09-26T20:22:03.393Z,0.90
2022-09-26T20:24:33.326Z,1.30
2022-09-26T20:27:03.105Z,1.40
2022-09-26T20:29:51.137Z,1.20
2022-09-26T20:32:19.267Z,1.37
2022-09-26T20:34:48.286Z,1.20
2022-09-26T20:37:17.914Z,1.00
2022-09-26T20:39:47.007Z,1.33
2022-09-26T20:42:17.252Z,1.30
2022-09-26T20:44:48.434Z,1.40
2022-09-26T20:47:19.563Z,1.37
2022-09-26T20:49:49.023Z,0.90
2022-09-26T20:52:20.454Z,1.37
2022-09-26T20:54:48.499Z,1.30
2022-09-26T20:57:17.264Z,1.00
2022-09-26T20:59:45.320Z,1.00
2022-09-26T21:02:26.592Z,1.00
2022-09-26T21:04:54.888Z,1.40
2022-09-26T21:07:24.267Z,1.40
2022-09-26T21:09:52.418Z,1.10
2022-09-26T21:12:20.468Z,1.13
2022-09-26T21:14:48.486Z,1.37
2022-09-26T21:17:18.260Z,1.03
2022-09-26T21:19:52.336Z,1.10
2022-09-26T21:22:27.528Z,1.47
2022-09-26T21:24:55.534Z,1.30
2022-09-26T21:27:24.387Z,1.13
2022-09-26T21:29:52.390Z,1.30
2022-09-26T21:32:21.609Z,1.73
2022-09-26T21:34:51.723Z,1.20
2022-09-26T21:37:19.727Z,1.37
2022-09-26T21:39:49.135Z,1.40
2022-09-26T21:42:17.133Z,1.10
2022-09-26T21:44:45.962Z,1.77
2022-09-26T21:47:15.211Z,1.53
2022-09-26T21:49:43.253Z,1.23
2022-09-26T21:52:12.996Z,1.50
2022-09-26T21:54:42.213Z,1.40
2022-09-26T21:57:13.102Z,1.20
2022-09-26T21:59:41.128Z,0.93
2022-09-26T22:02:09.182Z,1.30
2022-09-26T22:04:37.187Z,1.37
2022-09-26T22:07:06.137Z,1.07
2022-09-26T22:09:42.238Z,1.10
2022-09-26T22:12:11.668Z,1.60
2022-09-26T22:14:39.676Z,1.40
2022-09-26T22:17:07.756Z,1.67
2022-09-26T22:19:36.121Z,1.60
2022-09-26T22:22:06.135Z,1.47
2022-09-26T22:24:36.313Z,1.40
2022-09-26T22:27:04.444Z,1.40
2022-09-26T22:29:33.816Z,1.60
2022-09-26T22:32:03.902Z,1.27
2022-09-26T22:34:32.662Z,1.60
2022-09-26T22:37:06.186Z,2.03
2022-09-26T22:39:36.162Z,1.77
2022-09-26T22:42:04.242Z,1.77
2022-09-26T22:44:33.622Z,1.77
2022-09-26T22:47:01.634Z,1.50
2022-09-26T22:49:29.903Z,1.70
2022-09-26T22:51:57.924Z,2.03
2022-09-26T22:54:25.993Z,1.60
2022-09-26T22:56:54.367Z,2.07
2022-09-26T22:59:22.381Z,2.00
2022-09-26T23:01:51.848Z,2.43
2022-09-26T23:04:19.925Z,2.20
2022-09-26T23:06:47.960Z,2.30
2022-09-26T23:09:18.225Z,2.47
2022-09-26T23:11:47.159Z,2.50
2022-09-26T23:14:15.195Z,2.40
2022-09-26T23:16:43.263Z,2.13
2022-09-26T23:19:12.674Z,2.23
2022-09-26T23:21:40.682Z,2.30
2022-09-26T23:24:12.207Z,2.00
2022-09-26T23:26:40.246Z,2.63
2022-09-26T23:29:08.263Z,2.03
2022-09-26T23:31:36.287Z,2.20
2022-09-26T23:34:04.473Z,2.37
2022-09-26T23:36:34.169Z,2.33
2022-09-26T23:39:02.498Z,2.20
2022-09-26T23:41:30.524Z,2.07
2022-09-26T23:43:58.623Z,1.90
2022-09-26T23:46:26.700Z,1.67
2022-09-26T23:48:54.931Z,1.73
2022-09-26T23:51:22.963Z,1.97
2022-09-26T23:53:52.359Z,2.10
2022-09-26T23:56:20.360Z,1.93
2022-09-26T23:58:56.400Z,1.93
